createdAt,value
2023-10-18T00:00:12.937Z,0.00
2023-10-18T00:01:12.990Z,0.00
2023-10-18T00:02:12.879Z,0.00
2023-10-18T00:03:13.002Z,0.00
2023-10-18T00:04:12.876Z,0.00
2023-10-18T00:05:12.799Z,0.00
2023-10-18T00:06:12.779Z,0.00
2023-10-18T00:07:12.771Z,0.00
2023-10-18T00:08:12.724Z,0.00
2023-10-18T00:09:12.761Z,0.00
2023-10-18T00:10:12.724Z,0.00
2023-10-18T00:11:12.635Z,0.00
2023-10-18T00:12:12.618Z,0.00
2023-10-18T00:13:12.668Z,0.00
2023-10-18T00:14:12.571Z,0.00
2023-10-18T00:15:12.532Z,0.00
2023-10-18T00:16:12.559Z,0.00
2023-10-18T00:17:12.486Z,0.00
2023-10-18T00:18:12.693Z,0.00
2023-10-18T00:19:12.506Z,0.00
2023-10-18T00:20:12.412Z,0.00
2023-10-18T00:21:12.385Z,0.00
2023-10-18T00:22:12.362Z,0.00
2023-10-18T00:23:12.324Z,0.00
2023-10-18T00:24:12.313Z,0.00
2023-10-18T00:25:12.451Z,0.00
2023-10-18T00:26:12.248Z,0.00
2023-10-18T00:27:12.220Z,0.00
2023-10-18T00:28:12.222Z,0.00
2023-10-18T00:29:12.171Z,0.00
2023-10-18T00:30:12.148Z,0.00
2023-10-18T00:31:12.289Z,0.00
2023-10-18T00:32:12.099Z,0.00
2023-10-18T00:33:12.068Z,0.00
2023-10-18T00:34:12.066Z,0.00
2023-10-18T00:35:12.011Z,0.00
2023-10-18T00:36:11.997Z,0.00
2023-10-18T00:37:11.996Z,0.00
2023-10-18T00:38:11.938Z,0.00
2023-10-18T00:39:11.912Z,0.00
2023-10-18T00:40:11.942Z,0.00
2023-10-18T00:41:11.929Z,0.00
2023-10-18T00:42:11.836Z,0.00
2023-10-18T00:43:11.915Z,0.00
2023-10-18T00:44:11.775Z,0.00
2023-10-18T00:45:11.772Z,0.00
2023-10-18T00:46:11.825Z,0.00
2023-10-18T00:47:11.745Z,0.00
2023-10-18T00:48:11.676Z,0.00
2023-10-18T00:49:11.687Z,0.00
2023-10-18T00:50:11.620Z,0.00
2023-10-18T00:51:11.594Z,0.00
2023-10-18T00:52:11.665Z,0.00
2023-10-18T00:53:11.549Z,0.00
2023-10-18T00:54:11.514Z,0.00
2023-10-18T00:55:11.562Z,0.00
2023-10-18T00:56:11.468Z,0.00
2023-10-18T00:57:12.448Z,0.00
2023-10-18T00:58:11.441Z,0.00
2023-10-18T00:59:11.385Z,0.00
2023-10-18T01:00:11.389Z,0.00
2023-10-18T01:01:11.637Z,0.00
2023-10-18T01:02:11.322Z,0.00
2023-10-18T01:03:11.333Z,0.00
2023-10-18T01:04:11.317Z,0.00
2023-10-18T01:05:11.258Z,0.00
2023-10-18T01:06:11.223Z,0.00
2023-10-18T01:07:11.313Z,0.00
2023-10-18T01:08:11.154Z,0.00
2023-10-18T01:09:11.143Z,0.00
2023-10-18T01:10:11.271Z,0.00
2023-10-18T01:11:11.066Z,0.00
2023-10-18T01:12:11.049Z,0.00
2023-10-18T01:13:11.070Z,0.00
2023-10-18T01:14:10.992Z,0.00
2023-10-18T01:15:10.958Z,0.00
2023-10-18T01:16:10.999Z,0.00
2023-10-18T01:17:11.021Z,0.00
2023-10-18T01:18:10.889Z,0.00
2023-10-18T01:19:10.901Z,0.00
2023-10-18T01:20:11.028Z,0.00
2023-10-18T01:21:10.805Z,0.00
2023-10-18T01:22:10.836Z,0.00
2023-10-18T01:23:10.755Z,4.00
2023-10-18T01:24:10.732Z,4.00
2023-10-18T01:25:10.751Z,4.00
2023-10-18T01:26:10.677Z,4.00
2023-10-18T01:27:10.647Z,4.00
2023-10-18T01:28:10.642Z,4.00
2023-10-18T01:29:10.619Z,4.00
2023-10-18T01:30:10.584Z,0.00
2023-10-18T01:31:10.634Z,0.00
2023-10-18T01:32:10.519Z,0.00
2023-10-18T01:33:10.545Z,0.00
2023-10-18T01:34:10.579Z,0.00
2023-10-18T01:35:10.431Z,0.00
2023-10-18T01:36:10.410Z,0.00
2023-10-18T01:37:10.404Z,0.00
2023-10-18T01:38:10.368Z,0.00
2023-10-18T01:39:10.336Z,0.00
2023-10-18T01:40:10.324Z,0.00
2023-10-18T01:41:10.285Z,0.00
2023-10-18T01:42:10.254Z,0.00
2023-10-18T01:43:10.266Z,0.00
2023-10-18T01:44:10.200Z,0.00
2023-10-18T01:45:10.197Z,0.00
2023-10-18T01:46:10.250Z,0.00
2023-10-18T01:47:10.198Z,0.00
2023-10-18T01:48:10.136Z,0.00
2023-10-18T01:49:10.128Z,0.00
2023-10-18T01:50:10.065Z,0.00
2023-10-18T01:51:10.017Z,0.00
2023-10-18T01:52:10.032Z,0.00
2023-10-18T01:53:09.959Z,0.00
2023-10-18T01:54:09.942Z,0.00
2023-10-18T01:55:09.907Z,0.00
2023-10-18T01:56:09.889Z,0.00
2023-10-18T01:57:09.863Z,0.00
2023-10-18T01:58:09.844Z,0.00
2023-10-18T01:59:09.807Z,0.00
2023-10-18T02:00:09.786Z,0.00
2023-10-18T02:01:09.866Z,0.00
2023-10-18T02:02:09.756Z,0.00
2023-10-18T02:03:09.760Z,0.00
2023-10-18T02:04:09.742Z,0.00
2023-10-18T02:05:09.832Z,0.00
2023-10-18T02:06:09.625Z,0.00
2023-10-18T02:07:09.596Z,0.00
2023-10-18T02:08:09.574Z,0.00
2023-10-18T02:09:09.544Z,0.00
2023-10-18T02:10:09.563Z,0.00
2023-10-18T02:11:09.494Z,0.00
2023-10-18T02:12:09.466Z,0.00
2023-10-18T02:13:09.474Z,0.00
2023-10-18T02:14:09.410Z,0.00
2023-10-18T02:15:09.382Z,0.00
2023-10-18T02:16:09.448Z,0.00
2023-10-18T02:17:09.389Z,0.00
2023-10-18T02:18:09.402Z,0.00
2023-10-18T02:19:09.386Z,0.00
2023-10-18T02:20:09.253Z,0.00
2023-10-18T02:21:09.222Z,0.00
2023-10-18T02:22:09.213Z,0.00
2023-10-18T02:23:09.169Z,0.00
2023-10-18T02:24:09.144Z,0.00
2023-10-18T02:25:09.144Z,0.00
2023-10-18T02:26:09.092Z,0.00
2023-10-18T02:27:09.066Z,0.00
2023-10-18T02:28:09.092Z,0.00
2023-10-18T02:29:09.008Z,0.00
2023-10-18T02:30:08.989Z,0.00
2023-10-18T02:31:08.984Z,0.00
2023-10-18T02:32:08.972Z,0.00
2023-10-18T02:33:08.927Z,0.00
2023-10-18T02:34:22.642Z,0.00
2023-10-18T02:35:08.862Z,0.00
2023-10-18T02:36:08.830Z,0.00
2023-10-18T02:37:08.834Z,0.00
2023-10-18T02:38:08.790Z,0.00
2023-10-18T02:39:08.747Z,0.00
2023-10-18T02:40:09.237Z,0.00
2023-10-18T02:41:08.697Z,0.00
2023-10-18T02:42:08.664Z,0.00
2023-10-18T02:43:08.677Z,0.00
2023-10-18T02:44:08.615Z,0.00
2023-10-18T02:45:08.584Z,0.00
2023-10-18T02:46:08.602Z,0.00
2023-10-18T02:47:08.528Z,0.00
2023-10-18T02:48:08.521Z,0.00
2023-10-18T02:49:08.556Z,0.00
2023-10-18T02:50:08.449Z,0.00
2023-10-18T02:51:08.417Z,0.00
2023-10-18T02:52:08.425Z,0.00
2023-10-18T02:53:08.364Z,0.00
2023-10-18T02:54:08.345Z,0.00
2023-10-18T02:55:08.407Z,0.00
2023-10-18T02:56:08.284Z,0.00
2023-10-18T02:57:08.264Z,0.00
2023-10-18T02:58:08.427Z,0.00
2023-10-18T02:59:08.292Z,0.00
2023-10-18T03:00:08.182Z,0.00
2023-10-18T03:01:08.212Z,0.00
2023-10-18T03:02:08.131Z,0.00
2023-10-18T03:03:08.152Z,0.00
2023-10-18T03:04:08.200Z,0.00
2023-10-18T03:05:08.126Z,0.00
2023-10-18T03:06:08.020Z,0.00
2023-10-18T03:07:08.013Z,0.00
2023-10-18T03:08:07.964Z,0.00
2023-10-18T03:09:07.939Z,0.00
2023-10-18T03:10:07.928Z,0.00
2023-10-18T03:11:07.886Z,0.00
2023-10-18T03:12:08.991Z,0.00
2023-10-18T03:13:07.849Z,0.00
2023-10-18T03:14:07.804Z,0.00
2023-10-18T03:15:07.787Z,0.00
2023-10-18T03:16:07.860Z,0.00
2023-10-18T03:17:07.866Z,0.00
2023-10-18T03:18:07.817Z,0.00
2023-10-18T03:19:07.720Z,0.00
2023-10-18T03:20:07.648Z,0.00
2023-10-18T03:21:07.657Z,0.00
2023-10-18T03:22:07.642Z,0.00
2023-10-18T03:23:07.575Z,0.00
2023-10-18T03:24:07.543Z,0.00
2023-10-18T03:25:07.584Z,0.00
2023-10-18T03:26:07.490Z,0.00
2023-10-18T03:27:07.485Z,0.00
2023-10-18T03:28:07.468Z,0.00
2023-10-18T03:29:07.427Z,0.00
2023-10-18T03:30:07.444Z,0.00
2023-10-18T03:31:07.425Z,0.00
2023-10-18T03:32:07.387Z,0.00
2023-10-18T03:33:07.327Z,0.00
2023-10-18T03:34:07.332Z,0.00
2023-10-18T03:35:07.258Z,0.00
2023-10-18T03:36:18.286Z,0.00
2023-10-18T03:37:07.286Z,0.00
2023-10-18T03:38:07.172Z,0.00
2023-10-18T03:39:07.149Z,0.00
2023-10-18T03:40:07.190Z,0.00
2023-10-18T03:41:07.095Z,0.00
2023-10-18T03:42:07.067Z,0.00
2023-10-18T03:43:07.111Z,0.00
2023-10-18T03:44:07.020Z,0.00
2023-10-18T03:45:06.987Z,0.00
2023-10-18T03:46:07.025Z,0.00
2023-10-18T03:47:06.940Z,0.00
2023-10-18T03:48:06.922Z,0.00
2023-10-18T03:49:06.943Z,0.00
2023-10-18T03:50:06.857Z,0.00
2023-10-18T03:51:06.835Z,0.00
2023-10-18T03:52:06.841Z,0.00
2023-10-18T03:53:06.800Z,0.00
2023-10-18T03:54:06.746Z,0.00
2023-10-18T03:55:06.808Z,0.00
2023-10-18T03:56:06.689Z,0.00
2023-10-18T03:57:06.669Z,0.00
2023-10-18T03:58:06.706Z,0.00
2023-10-18T03:59:06.611Z,0.00
2023-10-18T04:00:06.588Z,0.00
2023-10-18T04:01:06.769Z,0.00
2023-10-18T04:02:06.580Z,0.00
2023-10-18T04:03:06.611Z,0.00
2023-10-18T04:04:06.588Z,0.00
2023-10-18T04:05:06.458Z,0.00
2023-10-18T04:06:06.426Z,0.00
2023-10-18T04:07:06.489Z,0.00
2023-10-18T04:08:06.366Z,0.00
2023-10-18T04:09:06.365Z,0.00
2023-10-18T04:10:06.351Z,0.00
2023-10-18T04:11:06.289Z,0.00
2023-10-18T04:12:06.262Z,0.00
2023-10-18T04:13:06.269Z,0.00
2023-10-18T04:14:06.216Z,0.00
2023-10-18T04:15:06.185Z,0.00
2023-10-18T04:16:06.200Z,0.00
2023-10-18T04:17:06.128Z,0.00
2023-10-18T04:18:06.133Z,0.00
2023-10-18T04:19:06.156Z,0.00
2023-10-18T04:20:06.047Z,0.00
2023-10-18T04:21:06.023Z,0.00
2023-10-18T04:22:06.045Z,0.00
2023-10-18T04:23:05.973Z,0.00
2023-10-18T04:24:05.938Z,0.00
2023-10-18T04:25:05.984Z,0.00
2023-10-18T04:26:05.891Z,0.00
2023-10-18T04:27:05.861Z,0.00
2023-10-18T04:28:05.888Z,0.00
2023-10-18T04:29:05.826Z,0.00
2023-10-18T04:30:05.786Z,0.00
2023-10-18T04:31:05.888Z,0.00
2023-10-18T04:32:05.743Z,0.00
2023-10-18T04:33:05.752Z,0.00
2023-10-18T04:34:05.744Z,0.00
2023-10-18T04:35:05.649Z,0.00
2023-10-18T04:36:05.614Z,0.00
2023-10-18T04:37:05.691Z,0.00
2023-10-18T04:38:05.561Z,0.00
2023-10-18T04:39:05.544Z,0.00
2023-10-18T04:40:05.554Z,0.00
2023-10-18T04:41:05.513Z,0.00
2023-10-18T04:42:05.455Z,0.00
2023-10-18T04:43:05.436Z,0.00
2023-10-18T04:44:05.408Z,0.00
2023-10-18T04:45:05.378Z,0.00
2023-10-18T04:46:05.438Z,0.00
2023-10-18T04:47:05.398Z,0.00
2023-10-18T04:48:05.321Z,0.00
2023-10-18T04:49:05.305Z,0.00
2023-10-18T04:50:05.250Z,0.00
2023-10-18T04:51:05.214Z,0.00
2023-10-18T04:52:05.208Z,0.00
2023-10-18T04:53:05.170Z,0.00
2023-10-18T04:54:05.137Z,0.00
2023-10-18T04:55:05.159Z,4.00
2023-10-18T04:56:05.081Z,4.00
2023-10-18T04:57:05.078Z,4.00
2023-10-18T04:58:05.052Z,4.00
2023-10-18T04:59:05.006Z,4.00
2023-10-18T05:00:04.982Z,4.00
2023-10-18T05:01:04.984Z,4.00
2023-10-18T05:02:04.991Z,0.00
2023-10-18T05:03:04.919Z,0.00
2023-10-18T05:04:04.956Z,0.00
2023-10-18T05:05:05.646Z,0.00
2023-10-18T05:06:04.820Z,0.00
2023-10-18T05:07:04.800Z,0.00
2023-10-18T05:08:04.769Z,0.00
2023-10-18T05:09:04.740Z,0.00
2023-10-18T05:10:04.729Z,0.00
2023-10-18T05:11:04.690Z,0.00
2023-10-18T05:12:04.669Z,0.00
2023-10-18T05:13:04.703Z,4.00
2023-10-18T05:14:04.616Z,4.00
2023-10-18T05:15:04.588Z,4.00
2023-10-18T05:16:04.625Z,4.00
2023-10-18T05:17:04.668Z,4.00
2023-10-18T05:18:04.579Z,4.00
2023-10-18T05:19:04.512Z,4.00
2023-10-18T05:20:04.445Z,4.00
2023-10-18T05:21:04.428Z,4.00
2023-10-18T05:22:04.452Z,4.00
2023-10-18T05:23:04.373Z,4.00
2023-10-18T05:24:04.342Z,4.00
2023-10-18T05:25:04.369Z,4.00
2023-10-18T05:26:04.291Z,4.00
2023-10-18T05:27:04.269Z,4.00
2023-10-18T05:28:04.272Z,4.00
2023-10-18T05:29:04.234Z,4.00
2023-10-18T05:30:04.183Z,0.00
2023-10-18T05:31:04.280Z,0.00
2023-10-18T05:32:04.198Z,0.00
2023-10-18T05:33:04.179Z,0.00
2023-10-18T05:34:04.090Z,0.00
2023-10-18T05:35:12.926Z,0.00
2023-10-18T05:36:04.033Z,0.00
2023-10-18T05:37:04.059Z,0.00
2023-10-18T05:38:03.983Z,0.00
2023-10-18T05:39:03.944Z,0.00
2023-10-18T05:40:03.940Z,4.00
2023-10-18T05:41:03.902Z,0.00
2023-10-18T05:42:03.866Z,0.00
2023-10-18T05:43:03.897Z,0.00
2023-10-18T05:44:03.880Z,4.00
2023-10-18T05:45:03.813Z,4.00
2023-10-18T05:46:03.827Z,0.00
2023-10-18T05:47:03.763Z,0.00
2023-10-18T05:48:03.733Z,4.00
2023-10-18T05:49:03.711Z,4.00
2023-10-18T05:50:03.655Z,4.00
2023-10-18T05:51:03.641Z,0.00
2023-10-18T05:52:03.650Z,4.00
2023-10-18T05:53:03.584Z,4.00
2023-10-18T05:54:03.541Z,8.00
2023-10-18T05:55:03.553Z,8.00
2023-10-18T05:56:03.493Z,4.00
2023-10-18T05:57:03.467Z,4.00
2023-10-18T05:58:03.491Z,8.00
2023-10-18T05:59:03.419Z,8.00
2023-10-18T06:00:03.391Z,8.00
2023-10-18T06:01:03.424Z,8.00
2023-10-18T06:02:03.444Z,12.00
2023-10-18T06:03:03.375Z,8.00
2023-10-18T06:04:03.352Z,8.00
2023-10-18T06:05:03.266Z,8.00
2023-10-18T06:06:03.229Z,12.00
2023-10-18T06:07:03.230Z,12.00
2023-10-18T06:08:03.175Z,12.00
2023-10-18T06:09:03.164Z,16.00
2023-10-18T06:10:03.165Z,20.00
2023-10-18T06:11:03.098Z,20.00
2023-10-18T06:12:03.074Z,20.00
2023-10-18T06:13:03.101Z,20.00
2023-10-18T06:14:03.021Z,24.00
2023-10-18T06:15:02.991Z,28.00
2023-10-18T06:16:02.985Z,28.00
2023-10-18T06:17:03.131Z,32.00
2023-10-18T06:18:02.917Z,32.00
2023-10-18T06:19:02.980Z,32.00
2023-10-18T06:20:02.848Z,36.00
2023-10-18T06:21:02.835Z,40.00
2023-10-18T06:22:02.848Z,40.00
2023-10-18T06:23:02.777Z,44.00
2023-10-18T06:24:02.749Z,44.00
2023-10-18T06:25:02.762Z,48.00
2023-10-18T06:26:02.700Z,52.00
2023-10-18T06:27:02.678Z,52.00
2023-10-18T06:28:02.649Z,60.00
2023-10-18T06:29:02.619Z,60.00
2023-10-18T06:30:02.648Z,64.00
2023-10-18T06:31:02.699Z,68.00
2023-10-18T06:32:02.578Z,68.00
2023-10-18T06:33:02.591Z,72.00
2023-10-18T06:34:02.577Z,72.00
2023-10-18T06:35:02.462Z,80.00
2023-10-18T06:36:02.429Z,84.00
2023-10-18T06:37:02.420Z,84.00
2023-10-18T06:38:02.379Z,88.00
2023-10-18T06:39:02.364Z,92.00
2023-10-18T06:40:02.424Z,92.00
2023-10-18T06:41:06.364Z,96.00
2023-10-18T06:42:02.269Z,100.00
2023-10-18T06:43:02.291Z,100.00
2023-10-18T06:44:02.219Z,104.00
2023-10-18T06:45:02.194Z,104.00
2023-10-18T06:46:02.273Z,108.00
2023-10-18T06:47:02.321Z,112.00
2023-10-18T06:48:02.142Z,112.00
2023-10-18T06:49:10.920Z,116.00
2023-10-18T06:50:17.251Z,116.00
2023-10-18T06:51:02.039Z,116.00
2023-10-18T06:52:02.048Z,120.00
2023-10-18T06:53:02.059Z,124.00
2023-10-18T06:54:01.952Z,128.00
2023-10-18T06:55:01.925Z,128.00
2023-10-18T06:56:04.194Z,128.00
2023-10-18T06:57:01.879Z,136.00
2023-10-18T06:58:01.885Z,136.00
2023-10-18T06:59:01.828Z,136.00
2023-10-18T07:00:01.797Z,144.00
2023-10-18T07:01:01.853Z,144.00
2023-10-18T07:02:01.820Z,148.00
2023-10-18T07:03:01.924Z,148.00
2023-10-18T07:04:01.850Z,152.00
2023-10-18T07:05:01.690Z,152.00
2023-10-18T07:06:01.629Z,156.00
2023-10-18T07:07:01.656Z,160.00
2023-10-18T07:08:01.581Z,164.00
2023-10-18T07:09:01.552Z,168.00
2023-10-18T07:10:01.560Z,168.00
2023-10-18T07:11:18.422Z,168.00
2023-10-18T07:12:01.476Z,176.00
2023-10-18T07:13:01.466Z,176.00
2023-10-18T07:14:01.485Z,180.00
2023-10-18T07:15:01.388Z,180.00
2023-10-18T07:16:01.452Z,180.00
2023-10-18T07:17:01.394Z,184.00
2023-10-18T07:18:01.356Z,188.00
2023-10-18T07:19:01.326Z,188.00
2023-10-18T07:20:01.262Z,192.00
2023-10-18T07:21:01.255Z,196.00
2023-10-18T07:22:01.243Z,200.00
2023-10-18T07:23:01.183Z,200.00
2023-10-18T07:24:01.153Z,204.00
2023-10-18T07:25:01.149Z,204.00
2023-10-18T07:26:08.654Z,208.00
2023-10-18T07:27:01.078Z,212.00
2023-10-18T07:28:01.089Z,216.00
2023-10-18T07:29:01.019Z,216.00
2023-10-18T07:30:01.009Z,220.00
2023-10-18T07:31:01.014Z,220.00
2023-10-18T07:32:01.158Z,224.00
2023-10-18T07:33:00.935Z,224.00
2023-10-18T07:34:00.925Z,232.00
2023-10-18T07:35:00.863Z,236.00
2023-10-18T07:36:00.853Z,236.00
2023-10-18T07:37:00.871Z,244.00
2023-10-18T07:38:00.783Z,248.00
2023-10-18T07:39:00.756Z,252.00
2023-10-18T07:40:00.744Z,252.00
2023-10-18T07:41:00.712Z,260.00
2023-10-18T07:42:00.683Z,264.00
2023-10-18T07:43:00.665Z,272.00
2023-10-18T07:44:00.628Z,272.00
2023-10-18T07:45:00.609Z,280.00
2023-10-18T07:46:00.590Z,284.00
2023-10-18T07:47:00.538Z,292.00
2023-10-18T07:48:00.592Z,288.00
2023-10-18T07:49:00.582Z,292.00
2023-10-18T07:50:00.474Z,296.00
2023-10-18T07:51:00.439Z,296.00
2023-10-18T07:52:00.729Z,296.00
2023-10-18T07:53:00.446Z,300.00
2023-10-18T07:54:00.452Z,300.00
2023-10-18T07:55:00.343Z,296.00
2023-10-18T07:56:00.306Z,292.00
2023-10-18T07:57:00.284Z,292.00
2023-10-18T07:58:00.314Z,292.00
2023-10-18T07:59:00.232Z,296.00
2023-10-18T08:00:00.359Z,296.00
2023-10-18T08:01:00.237Z,300.00
2023-10-18T08:02:00.282Z,304.00
2023-10-18T08:03:00.257Z,304.00
2023-10-18T08:04:00.272Z,308.00
2023-10-18T08:05:00.387Z,312.00
2023-10-18T08:06:00.174Z,312.00
2023-10-18T08:07:00.064Z,320.00
2023-10-18T08:07:59.998Z,324.00
2023-10-18T08:08:59.986Z,324.00
2023-10-18T08:09:59.992Z,324.00
2023-10-18T08:10:59.912Z,324.00
2023-10-18T08:11:59.883Z,324.00
2023-10-18T08:12:59.938Z,328.00
2023-10-18T08:13:59.838Z,328.00
2023-10-18T08:14:59.813Z,344.00
2023-10-18T08:15:59.791Z,336.00
2023-10-18T08:16:59.761Z,336.00
2023-10-18T08:17:59.758Z,340.00
2023-10-18T08:18:59.717Z,344.00
2023-10-18T08:19:59.692Z,348.00
2023-10-18T08:20:59.654Z,348.00
2023-10-18T08:21:59.663Z,348.00
2023-10-18T08:22:59.593Z,356.00
2023-10-18T08:23:59.571Z,360.00
2023-10-18T08:24:59.649Z,364.00
2023-10-18T08:25:59.515Z,364.00
2023-10-18T08:26:59.493Z,368.00
2023-10-18T08:27:59.479Z,376.00
2023-10-18T08:28:59.441Z,376.00
2023-10-18T08:29:59.420Z,384.00
2023-10-18T08:30:59.438Z,384.00
2023-10-18T08:31:59.408Z,388.00
2023-10-18T08:32:59.454Z,392.00
2023-10-18T08:33:59.336Z,396.00
2023-10-18T08:34:59.275Z,396.00
2023-10-18T08:35:59.250Z,404.00
2023-10-18T08:36:59.254Z,408.00
2023-10-18T08:37:59.201Z,412.00
2023-10-18T08:38:59.169Z,416.00
2023-10-18T08:39:59.168Z,420.00
2023-10-18T08:40:59.144Z,424.00
2023-10-18T08:41:59.102Z,424.00
2023-10-18T08:42:59.172Z,428.00
2023-10-18T08:43:59.066Z,428.00
2023-10-18T08:44:59.015Z,432.00
2023-10-18T08:45:59.003Z,436.00
2023-10-18T08:46:58.990Z,440.00
2023-10-18T08:47:58.989Z,444.00
2023-10-18T08:48:58.987Z,448.00
2023-10-18T08:49:58.896Z,452.00
2023-10-18T08:50:58.861Z,456.00
2023-10-18T08:51:58.918Z,456.00
2023-10-18T08:52:58.805Z,456.00
2023-10-18T08:53:58.786Z,460.00
2023-10-18T08:54:58.782Z,452.00
2023-10-18T08:55:58.857Z,448.00
2023-10-18T08:56:58.725Z,452.00
2023-10-18T08:57:58.738Z,448.00
2023-10-18T08:58:58.659Z,448.00
2023-10-18T08:59:58.628Z,444.00
2023-10-18T09:00:58.672Z,444.00
2023-10-18T09:01:58.652Z,444.00
2023-10-18T09:02:58.715Z,448.00
2023-10-18T09:03:58.623Z,444.00
2023-10-18T09:04:58.521Z,448.00
2023-10-18T09:05:58.473Z,460.00
2023-10-18T09:06:58.480Z,464.00
2023-10-18T09:07:58.421Z,468.00
2023-10-18T09:08:58.386Z,464.00
2023-10-18T09:09:58.435Z,468.00
2023-10-18T09:10:58.504Z,472.00
2023-10-18T09:11:58.326Z,476.00
2023-10-18T09:12:58.329Z,484.00
2023-10-18T09:13:58.315Z,492.00
2023-10-18T09:14:58.233Z,504.00
2023-10-18T09:16:01.067Z,516.00
2023-10-18T09:16:58.259Z,512.00
2023-10-18T09:17:58.233Z,520.00
2023-10-18T09:18:58.179Z,524.00
2023-10-18T09:19:58.104Z,528.00
2023-10-18T09:20:58.078Z,532.00
2023-10-18T09:22:58.026Z,540.00
2023-10-18T09:23:58.003Z,544.00
2023-10-18T09:24:58.000Z,552.00
2023-10-18T09:25:57.949Z,552.00
2023-10-18T09:26:57.918Z,560.00
2023-10-18T09:27:57.946Z,568.00
2023-10-18T09:28:57.890Z,580.00
2023-10-18T09:29:57.845Z,588.00
2023-10-18T09:30:57.872Z,604.00
2023-10-18T09:31:57.893Z,612.00
2023-10-18T09:32:57.798Z,624.00
2023-10-18T09:33:57.868Z,636.00
2023-10-18T09:34:57.714Z,640.00
2023-10-18T09:35:57.690Z,660.00
2023-10-18T09:36:57.966Z,672.00
2023-10-18T09:37:57.642Z,688.00
2023-10-18T09:38:57.615Z,700.00
2023-10-18T09:39:57.605Z,704.00
2023-10-18T09:40:57.562Z,716.00
2023-10-18T09:41:57.534Z,728.00
2023-10-18T09:42:57.527Z,752.00
2023-10-18T09:43:57.484Z,776.00
2023-10-18T09:44:57.483Z,780.00
2023-10-18T09:45:57.457Z,816.00
2023-10-18T09:46:57.425Z,836.00
2023-10-18T09:47:57.467Z,848.00
2023-10-18T09:48:57.365Z,860.00
2023-10-18T09:49:57.339Z,872.00
2023-10-18T09:50:57.307Z,884.00
2023-10-18T09:51:57.299Z,892.00
2023-10-18T09:52:57.253Z,924.00
2023-10-18T09:53:57.233Z,944.00
2023-10-18T09:54:57.211Z,948.00
2023-10-18T09:55:57.178Z,928.00
2023-10-18T09:56:57.138Z,936.00
2023-10-18T09:57:57.502Z,968.00
2023-10-18T09:58:57.099Z,972.00
2023-10-18T09:59:57.155Z,984.00
2023-10-18T10:00:57.084Z,956.00
2023-10-18T10:01:57.218Z,972.00
2023-10-18T10:02:57.052Z,920.00
2023-10-18T10:03:57.029Z,924.00
2023-10-18T10:04:57.065Z,928.00
2023-10-18T10:05:56.918Z,948.00
2023-10-18T10:06:56.954Z,932.00
2023-10-18T10:07:56.869Z,908.00
2023-10-18T10:08:56.839Z,880.00
2023-10-18T10:09:56.848Z,880.00
2023-10-18T10:10:56.794Z,856.00
2023-10-18T10:11:56.777Z,824.00
2023-10-18T10:12:56.751Z,824.00
2023-10-18T10:13:56.786Z,816.00
2023-10-18T10:14:56.680Z,808.00
2023-10-18T10:15:56.700Z,796.00
2023-10-18T10:16:56.696Z,808.00
2023-10-18T10:17:56.814Z,788.00
2023-10-18T10:18:56.595Z,780.00
2023-10-18T10:19:56.561Z,816.00
2023-10-18T10:20:56.527Z,820.00
2023-10-18T10:21:56.533Z,788.00
2023-10-18T10:22:56.482Z,800.00
2023-10-18T10:23:56.602Z,808.00
2023-10-18T10:25:05.613Z,812.00
2023-10-18T10:26:07.812Z,828.00
2023-10-18T10:26:56.424Z,844.00
2023-10-18T10:27:56.362Z,836.00
2023-10-18T10:28:56.330Z,832.00
2023-10-18T10:29:56.310Z,832.00
2023-10-18T10:30:56.341Z,852.00
2023-10-18T10:31:56.505Z,888.00
2023-10-18T10:32:56.296Z,892.00
2023-10-18T10:33:56.230Z,900.00
2023-10-18T10:34:56.177Z,900.00
2023-10-18T10:35:56.184Z,884.00
2023-10-18T10:36:56.153Z,872.00
2023-10-18T10:37:56.118Z,860.00
2023-10-18T10:38:56.069Z,836.00
2023-10-18T10:39:56.085Z,832.00
2023-10-18T10:40:56.029Z,824.00
2023-10-18T10:41:56.019Z,856.00
2023-10-18T10:42:55.994Z,880.00
2023-10-18T10:43:55.956Z,884.00
2023-10-18T10:44:55.926Z,908.00
2023-10-18T10:45:55.965Z,920.00
2023-10-18T10:46:55.923Z,948.00
2023-10-18T10:47:55.876Z,936.00
2023-10-18T10:48:55.863Z,928.00
2023-10-18T10:49:55.806Z,928.00
2023-10-18T10:50:55.839Z,932.00
2023-10-18T10:51:55.776Z,936.00
2023-10-18T10:52:55.726Z,900.00
2023-10-18T10:53:55.705Z,916.00
2023-10-18T10:54:55.716Z,900.00
2023-10-18T10:55:55.653Z,900.00
2023-10-18T10:56:55.627Z,884.00
2023-10-18T10:57:55.705Z,884.00
2023-10-18T10:58:55.929Z,876.00
2023-10-18T10:59:55.573Z,876.00
2023-10-18T11:00:58.087Z,852.00
2023-10-18T11:01:56.050Z,844.00
2023-10-18T11:02:55.760Z,836.00
2023-10-18T11:03:55.774Z,852.00
2023-10-18T11:04:55.440Z,836.00
2023-10-18T11:05:55.477Z,752.00
2023-10-18T11:06:55.521Z,668.00
2023-10-18T11:07:55.431Z,648.00
2023-10-18T11:08:55.372Z,668.00
2023-10-18T11:09:55.317Z,684.00
2023-10-18T11:10:55.270Z,676.00
2023-10-18T11:11:55.248Z,656.00
2023-10-18T11:12:55.259Z,648.00
2023-10-18T11:13:55.200Z,648.00
2023-10-18T11:14:55.170Z,636.00
2023-10-18T11:15:55.191Z,656.00
2023-10-18T11:16:55.468Z,672.00
2023-10-18T11:17:55.112Z,660.00
2023-10-18T11:18:55.066Z,672.00
2023-10-18T11:19:55.268Z,676.00
2023-10-18T11:20:55.047Z,676.00
2023-10-18T11:21:55.052Z,656.00
2023-10-18T11:22:54.968Z,640.00
2023-10-18T11:23:54.943Z,620.00
2023-10-18T11:24:54.997Z,608.00
2023-10-18T11:25:54.894Z,596.00
2023-10-18T11:26:54.872Z,596.00
2023-10-18T11:27:54.842Z,596.00
2023-10-18T11:28:54.816Z,592.00
2023-10-18T11:29:54.793Z,600.00
2023-10-18T11:30:55.255Z,600.00
2023-10-18T11:31:54.847Z,600.00
2023-10-18T11:32:54.886Z,596.00
2023-10-18T11:33:54.752Z,588.00
2023-10-18T11:34:54.677Z,592.00
2023-10-18T11:35:54.645Z,608.00
2023-10-18T11:36:54.676Z,624.00
2023-10-18T11:37:54.594Z,628.00
2023-10-18T11:38:54.570Z,640.00
2023-10-18T11:39:54.573Z,648.00
2023-10-18T11:40:54.524Z,656.00
2023-10-18T11:41:54.691Z,640.00
2023-10-18T11:42:54.494Z,620.00
2023-10-18T11:43:54.450Z,632.00
2023-10-18T11:44:54.425Z,612.00
2023-10-18T11:45:54.457Z,616.00
2023-10-18T11:46:54.408Z,628.00
2023-10-18T11:47:54.363Z,612.00
2023-10-18T11:48:54.350Z,608.00
2023-10-18T11:49:54.497Z,600.00
2023-10-18T11:50:54.272Z,600.00
2023-10-18T11:51:54.283Z,596.00
2023-10-18T11:52:54.246Z,592.00
2023-10-18T11:53:54.189Z,592.00
2023-10-18T11:54:54.246Z,592.00
2023-10-18T11:55:54.147Z,588.00
2023-10-18T11:56:54.122Z,592.00
2023-10-18T11:57:54.263Z,592.00
2023-10-18T11:58:54.082Z,592.00
2023-10-18T11:59:54.044Z,600.00
2023-10-18T12:00:54.041Z,612.00
2023-10-18T12:01:54.017Z,604.00
2023-10-18T12:02:54.065Z,608.00
2023-10-18T12:03:54.032Z,620.00
2023-10-18T12:04:54.050Z,620.00
2023-10-18T12:05:53.896Z,648.00
2023-10-18T12:06:53.868Z,660.00
2023-10-18T12:07:53.843Z,668.00
2023-10-18T12:08:53.964Z,664.00
2023-10-18T12:09:53.801Z,652.00
2023-10-18T12:10:53.777Z,636.00
2023-10-18T12:11:53.746Z,616.00
2023-10-18T12:12:53.721Z,684.00
2023-10-18T12:13:53.693Z,600.00
2023-10-18T12:14:53.678Z,600.00
2023-10-18T12:15:55.224Z,600.00
2023-10-18T12:16:53.718Z,592.00
2023-10-18T12:17:53.661Z,596.00
2023-10-18T12:18:53.572Z,596.00
2023-10-18T12:19:53.551Z,600.00
2023-10-18T12:20:53.515Z,608.00
2023-10-18T12:21:53.496Z,612.00
2023-10-18T12:22:53.477Z,616.00
2023-10-18T12:23:54.573Z,640.00
2023-10-18T12:24:53.444Z,632.00
2023-10-18T12:25:53.401Z,632.00
2023-10-18T12:26:53.376Z,648.00
2023-10-18T12:27:53.349Z,652.00
2023-10-18T12:28:53.345Z,660.00
2023-10-18T12:29:53.472Z,668.00
2023-10-18T12:30:53.304Z,704.00
2023-10-18T12:31:53.303Z,752.00
2023-10-18T12:32:53.251Z,728.00
2023-10-18T12:33:53.197Z,740.00
2023-10-18T12:34:53.191Z,816.00
2023-10-18T12:35:53.150Z,812.00
2023-10-18T12:36:53.128Z,924.00
2023-10-18T12:37:53.105Z,980.00
2023-10-18T12:38:53.070Z,992.00
2023-10-18T12:39:53.049Z,988.00
2023-10-18T12:40:53.065Z,960.00
2023-10-18T12:41:52.997Z,988.00
2023-10-18T12:42:52.981Z,920.00
2023-10-18T12:43:52.956Z,880.00
2023-10-18T12:44:53.263Z,868.00
2023-10-18T12:45:52.974Z,860.00
2023-10-18T12:46:52.895Z,816.00
2023-10-18T12:47:52.894Z,828.00
2023-10-18T12:48:52.833Z,816.00
2023-10-18T12:49:52.799Z,868.00
2023-10-18T12:50:52.787Z,928.00
2023-10-18T12:51:54.955Z,992.00
2023-10-18T12:52:52.862Z,988.00